createdAt,value
2022-08-21T00:02:23.983Z,100092.63
2022-08-21T00:04:56.959Z,100091.22
2022-08-21T00:07:25.310Z,100084.63
2022-08-21T00:09:52.901Z,100097.38
2022-08-21T00:12:20.334Z,100088.37
2022-08-21T00:14:47.143Z,100095.91
2022-08-21T00:17:14.180Z,100087.25
2022-08-21T00:19:40.890Z,100103.53
2022-08-21T00:22:07.591Z,100098.88
2022-08-21T00:24:34.731Z,100092.81
2022-08-21T00:27:01.407Z,100089.53
2022-08-21T00:29:28.182Z,100093.03
2022-08-21T00:31:55.089Z,100094.09
2022-08-21T00:34:21.798Z,100093.78
2022-08-21T00:36:48.578Z,100094.28
2022-08-21T00:39:15.490Z,100091.50
2022-08-21T00:41:43.437Z,100081.19
2022-08-21T00:44:14.324Z,100100.09
2022-08-21T00:46:43.105Z,100096.81
2022-08-21T00:49:12.522Z,100085.56
2022-08-21T00:51:46.178Z,100096.72
2022-08-21T00:54:18.673Z,100099.69
2022-08-21T00:56:49.044Z,100092.19
2022-08-21T00:59:18.775Z,100101.69
2022-08-21T01:01:46.070Z,100094.91
2022-08-21T01:04:13.202Z,100100.31
2022-08-21T01:06:40.398Z,100094.19
2022-08-21T01:09:07.125Z,100107.84
2022-08-21T01:11:33.846Z,100101.87
2022-08-21T01:14:00.938Z,100102.09
2022-08-21T01:16:28.085Z,100101.16
2022-08-21T01:18:54.743Z,100088.72
2022-08-21T01:21:27.939Z,100090.94
2022-08-21T01:23:57.060Z,100091.75
2022-08-21T01:26:34.092Z,100094.19
2022-08-21T01:29:10.999Z,100096.91
2022-08-21T01:31:38.816Z,100098.78
2022-08-21T01:34:06.402Z,100093.63
2022-08-21T01:36:33.486Z,100098.78
2022-08-21T01:39:00.783Z,100090.00
2022-08-21T01:41:27.468Z,100096.56
2022-08-21T01:43:54.113Z,100097.13
2022-08-21T01:46:21.398Z,100094.78
2022-08-21T01:48:48.180Z,100096.69
2022-08-21T01:51:14.900Z,100095.38
2022-08-21T01:53:42.157Z,100092.09
2022-08-21T01:56:12.704Z,100097.50
2022-08-21T01:58:45.711Z,100096.31
2022-08-21T02:01:13.078Z,100097.75
2022-08-21T02:03:40.430Z,100091.50
2022-08-21T02:06:08.211Z,100085.88
2022-08-21T02:08:35.599Z,100087.50
2022-08-21T02:11:02.625Z,100082.97
2022-08-21T02:13:29.602Z,100078.38
2022-08-21T02:15:56.259Z,100082.47
2022-08-21T02:18:23.324Z,100077.87
2022-08-21T02:20:54.103Z,100078.69
2022-08-21T02:23:26.689Z,100082.00
2022-08-21T02:26:02.334Z,100075.50
2022-08-21T02:28:29.508Z,100072.81
2022-08-21T02:30:57.025Z,100073.97
2022-08-21T02:33:24.848Z,100075.63
2022-08-21T02:35:52.969Z,100065.31
2022-08-21T02:38:34.209Z,100062.69
2022-08-21T02:41:02.010Z,100080.53
2022-08-21T02:43:29.426Z,100079.69
2022-08-21T02:45:58.088Z,100075.13
2022-08-21T02:48:30.637Z,100075.94
2022-08-21T02:51:04.392Z,100075.69
2022-08-21T02:53:31.987Z,100073.22
2022-08-21T02:56:02.817Z,100070.09
2022-08-21T02:58:34.295Z,100089.13
2022-08-21T03:01:02.034Z,100089.38
2022-08-21T03:03:29.197Z,100090.66
2022-08-21T03:05:56.433Z,100090.09
2022-08-21T03:08:24.191Z,100089.50
2022-08-21T03:10:55.063Z,100083.78
2022-08-21T03:13:22.127Z,100079.06
2022-08-21T03:15:50.817Z,100089.50
2022-08-21T03:18:18.582Z,100094.66
2022-08-21T03:20:48.686Z,100092.56
2022-08-21T03:23:18.420Z,100098.75
2022-08-21T03:25:47.829Z,100092.88
2022-08-21T03:28:20.292Z,100098.28
2022-08-21T03:30:49.669Z,100083.59
2022-08-21T03:33:17.114Z,100083.59
2022-08-21T03:35:56.471Z,100095.09
2022-08-21T03:38:26.501Z,100104.00
2022-08-21T03:40:54.405Z,100099.19
2022-08-21T03:43:21.907Z,100101.63
2022-08-21T03:45:48.714Z,100093.28
2022-08-21T03:48:15.906Z,100112.28
2022-08-21T03:50:45.889Z,100102.19
2022-08-21T03:53:16.968Z,100110.91
2022-08-21T03:55:49.600Z,100120.00
2022-08-21T03:58:18.688Z,100123.25
2022-08-21T04:00:48.587Z,100118.66
2022-08-21T04:03:16.436Z,100119.00
2022-08-21T04:05:44.180Z,100108.50
2022-08-21T04:08:10.848Z,100119.19
2022-08-21T04:10:40.155Z,100116.28
2022-08-21T04:13:08.595Z,100111.31
2022-08-21T04:15:35.483Z,100106.81
2022-08-21T04:18:04.547Z,100112.91
2022-08-21T04:20:31.485Z,100111.94
2022-08-21T04:22:58.369Z,100121.75
2022-08-21T04:25:28.716Z,100122.19
2022-08-21T04:27:55.541Z,100116.50
2022-08-21T04:30:28.150Z,100114.94
2022-08-21T04:32:58.311Z,100116.00
2022-08-21T04:35:27.215Z,100120.91
2022-08-21T04:37:54.167Z,100125.28
2022-08-21T04:40:23.656Z,100113.38
2022-08-21T04:42:56.136Z,100123.19
2022-08-21T04:45:27.839Z,100130.38
2022-08-21T04:47:56.851Z,100116.09
2022-08-21T04:50:28.014Z,100134.78
2022-08-21T04:53:04.995Z,100136.47
2022-08-21T04:55:32.466Z,100128.56
2022-08-21T04:58:01.013Z,100131.25
2022-08-21T05:00:27.947Z,100136.97
2022-08-21T05:03:00.106Z,100134.31
2022-08-21T05:05:30.016Z,100133.25
2022-08-21T05:08:00.455Z,100142.06
2022-08-21T05:10:27.634Z,100135.09
2022-08-21T05:12:55.731Z,100134.59
2022-08-21T05:15:22.755Z,100137.28
2022-08-21T05:17:55.488Z,100131.06
2022-08-21T05:20:28.882Z,100128.34
2022-08-21T05:22:56.296Z,100126.19
2022-08-21T05:25:23.846Z,100134.12
2022-08-21T05:27:51.999Z,100135.75
2022-08-21T05:30:19.984Z,100131.66
2022-08-21T05:32:48.473Z,100119.16
2022-08-21T05:35:15.922Z,100136.81
2022-08-21T05:37:42.607Z,100137.91
2022-08-21T05:40:22.518Z,100122.19
2022-08-21T05:42:55.037Z,100117.53
2022-08-21T05:45:43.356Z,100133.59
2022-08-21T05:48:31.799Z,100134.75
2022-08-21T05:50:59.028Z,100125.84
2022-08-21T05:53:26.409Z,100116.38
2022-08-21T05:55:53.251Z,100112.56
2022-08-21T05:58:21.784Z,100123.25
2022-08-21T06:00:51.338Z,100125.69
2022-08-21T06:03:27.070Z,100120.28
2022-08-21T06:05:54.835Z,100126.00
2022-08-21T06:08:22.959Z,100136.63
2022-08-21T06:10:51.043Z,100133.69
2022-08-21T06:13:19.679Z,100136.94
2022-08-21T06:15:46.804Z,100148.38
2022-08-21T06:18:13.822Z,100138.41
2022-08-21T06:20:40.935Z,100139.84
2022-08-21T06:23:08.312Z,100115.69
2022-08-21T06:25:35.294Z,100123.91
2022-08-21T06:28:06.270Z,100125.03
2022-08-21T06:30:34.243Z,100118.56
2022-08-21T06:33:01.428Z,100108.34
2022-08-21T06:35:29.956Z,100111.31
2022-08-21T06:37:58.567Z,100109.47
2022-08-21T06:40:26.982Z,100119.28
2022-08-21T06:42:53.793Z,100107.38
2022-08-21T06:45:21.866Z,100112.63
2022-08-21T06:47:48.582Z,100111.84
2022-08-21T06:50:15.328Z,100119.75
2022-08-21T06:52:42.480Z,100121.38
2022-08-21T06:55:11.239Z,100118.09
2022-08-21T06:57:38.760Z,100109.13
2022-08-21T07:00:07.578Z,100117.06
2022-08-21T07:02:34.763Z,100117.34
2022-08-21T07:05:01.789Z,100110.88
2022-08-21T07:07:45.387Z,100110.94
2022-08-21T07:10:22.326Z,100113.16
2022-08-21T07:13:00.026Z,100100.12
2022-08-21T07:15:28.009Z,100110.72
2022-08-21T07:17:55.135Z,100101.53
2022-08-21T07:20:21.902Z,100105.59
2022-08-21T07:22:48.579Z,100097.19
2022-08-21T07:25:15.641Z,100098.84
2022-08-21T07:27:42.319Z,100097.47
2022-08-21T07:30:09.447Z,100086.59
2022-08-21T07:32:36.382Z,100089.62
2022-08-21T07:35:04.023Z,100095.09
2022-08-21T07:37:30.706Z,100087.78
2022-08-21T07:39:57.829Z,100086.44
2022-08-21T07:42:24.607Z,100083.72
2022-08-21T07:44:53.108Z,100086.72
2022-08-21T07:47:29.323Z,100088.91
2022-08-21T07:50:09.339Z,100082.38
2022-08-21T07:52:36.310Z,100075.59
2022-08-21T07:55:06.275Z,100082.38
2022-08-21T07:57:34.099Z,100068.28
2022-08-21T08:00:01.026Z,100085.94
2022-08-21T08:02:30.158Z,100075.06
2022-08-21T08:05:06.732Z,100088.41
2022-08-21T08:07:33.597Z,100070.16
2022-08-21T08:10:01.003Z,100086.47
2022-08-21T08:12:30.371Z,100072.06
2022-08-21T08:15:01.434Z,100074.28
2022-08-21T08:17:28.525Z,100083.25
2022-08-21T08:19:55.533Z,100070.47
2022-08-21T08:22:24.960Z,100066.38
2022-08-21T08:24:53.433Z,100071.81
2022-08-21T08:27:21.457Z,100065.84
2022-08-21T08:29:48.954Z,100068.28
2022-08-21T08:32:16.083Z,100055.78
2022-08-21T08:34:42.811Z,100067.19
2022-08-21T08:37:11.001Z,100066.09
2022-08-21T08:39:39.093Z,100062.78
2022-08-21T08:42:33.476Z,100059.25
2022-08-21T08:45:14.656Z,100053.22
2022-08-21T08:47:45.645Z,100058.91
2022-08-21T08:50:24.604Z,100059.94
2022-08-21T08:53:12.758Z,100068.13
2022-08-21T08:55:42.973Z,100056.16
2022-08-21T08:58:32.052Z,100052.84
2022-08-21T09:01:00.347Z,100068.06
2022-08-21T09:03:28.768Z,100052.03
2022-08-21T09:06:12.899Z,100055.53
2022-08-21T09:09:01.369Z,100062.03
2022-08-21T09:11:37.703Z,100063.91
2022-08-21T09:14:10.850Z,100061.75
2022-08-21T09:16:43.532Z,100066.28
2022-08-21T09:19:18.240Z,100059.25
2022-08-21T09:22:10.240Z,100064.66
2022-08-21T09:25:12.440Z,100066.25
2022-08-21T09:27:39.161Z,100068.41
2022-08-21T09:30:08.294Z,100062.66
2022-08-21T09:32:37.823Z,100059.12
2022-08-21T09:35:13.304Z,100067.81
2022-08-21T09:37:59.262Z,100058.28
2022-08-21T09:40:31.709Z,100054.72
2022-08-21T09:43:04.290Z,100047.31
2022-08-21T09:45:33.866Z,100062.81
2022-08-21T09:48:14.408Z,100055.41
2022-08-21T09:50:42.566Z,100061.94
2022-08-21T09:53:17.379Z,100055.62
2022-08-21T09:56:17.139Z,100046.66
2022-08-21T09:58:47.754Z,100053.13
2022-08-21T10:01:18.560Z,100040.56
2022-08-21T10:03:47.289Z,100048.97
2022-08-21T10:06:28.829Z,100035.34
2022-08-21T10:09:19.911Z,100052.69
2022-08-21T10:12:14.956Z,100056.78
2022-08-21T10:15:12.020Z,100046.66
2022-08-21T10:17:47.536Z,100041.47
2022-08-21T10:20:20.881Z,100035.16
2022-08-21T10:22:56.880Z,100026.16
2022-08-21T10:25:30.115Z,100038.06
2022-08-21T10:28:21.411Z,100030.69
2022-08-21T10:30:51.305Z,100027.97
2022-08-21T10:33:44.432Z,100038.78
2022-08-21T10:36:36.631Z,100021.84
2022-08-21T10:39:35.190Z,100036.56
2022-08-21T10:42:28.274Z,100022.84
2022-08-21T10:45:09.622Z,100021.66
2022-08-21T10:47:57.331Z,100026.78
2022-08-21T10:50:45.663Z,100019.69
2022-08-21T10:53:49.644Z,100008.81
2022-08-21T10:56:23.967Z,100018.31
2022-08-21T10:59:23.925Z,99996.81
2022-08-21T11:02:03.031Z,100020.69
2022-08-21T11:04:49.114Z,100011.09
2022-08-21T11:07:40.467Z,100014.13
2022-08-21T11:10:22.240Z,100015.38
2022-08-21T11:12:57.700Z,100016.44
2022-08-21T11:15:29.580Z,100011.47
2022-08-21T11:18:23.913Z,100015.84
2022-08-21T11:21:36.644Z,100001.38
2022-08-21T11:24:31.374Z,100003.50
2022-08-21T11:27:01.866Z,99998.28
2022-08-21T11:29:38.632Z,100000.44
2022-08-21T11:32:08.696Z,99996.56
2022-08-21T11:34:52.584Z,99988.91
2022-08-21T11:37:57.124Z,99992.25
2022-08-21T11:40:56.321Z,100004.72
2022-08-21T11:43:43.769Z,99996.53
2022-08-21T11:46:31.633Z,99992.06
2022-08-21T11:49:29.487Z,99984.16
2022-08-21T11:52:17.660Z,99992.81
2022-08-21T11:54:55.155Z,99983.88
2022-08-21T11:57:30.527Z,99989.28
2022-08-21T12:00:00.762Z,99992.81
2022-08-21T12:02:51.836Z,99997.41
2022-08-21T12:05:40.734Z,99988.63
2022-08-21T12:08:10.886Z,99976.13
2022-08-21T12:10:42.128Z,99985.00
2022-08-21T12:13:36.650Z,99976.59
2022-08-21T12:16:14.443Z,99974.62
2022-08-21T12:18:42.529Z,99987.00
2022-08-21T12:21:23.750Z,99976.66
2022-08-21T12:24:03.308Z,99982.06
2022-08-21T12:26:50.682Z,99977.69
2022-08-21T12:29:24.166Z,99983.59
2022-08-21T12:32:00.880Z,99983.00
2022-08-21T12:34:35.840Z,99980.28
2022-08-21T12:37:17.943Z,99975.91
2022-08-21T12:39:47.829Z,99980.56
2022-08-21T12:42:23.378Z,99982.28
2022-08-21T12:45:06.115Z,99975.16
2022-08-21T12:47:48.364Z,99976.31
2022-08-21T12:50:24.117Z,99971.63
2022-08-21T12:53:29.262Z,99962.94
2022-08-21T12:56:02.172Z,99970.66
2022-08-21T12:58:29.863Z,99960.75
2022-08-21T13:01:31.980Z,99962.87
2022-08-21T13:04:05.309Z,99981.03
2022-08-21T13:06:39.088Z,99974.75
2022-08-21T13:09:11.128Z,99963.81
2022-08-21T13:11:40.856Z,99969.81
2022-08-21T13:14:26.862Z,99973.03
2022-08-21T13:16:55.986Z,99972.75
2022-08-21T13:19:24.448Z,99972.66
2022-08-21T13:21:53.346Z,99975.09
2022-08-21T13:27:27.870Z,99965.88
2022-08-21T13:30:13.791Z,99974.38
2022-08-21T13:32:49.626Z,99972.25
2022-08-21T13:35:27.856Z,99972.53
2022-08-21T13:37:56.747Z,99969.50
2022-08-21T13:40:28.920Z,99966.78
2022-08-21T13:42:57.113Z,99977.41
2022-08-21T13:45:31.972Z,99950.44
2022-08-21T13:48:06.175Z,99971.94
2022-08-21T13:50:36.277Z,99965.44
2022-08-21T13:53:07.382Z,99978.22
2022-08-21T13:55:41.343Z,99970.31
2022-08-21T13:58:09.644Z,99970.31
2022-08-21T14:00:46.599Z,99986.72
2022-08-21T14:03:35.660Z,99972.25
2022-08-21T14:06:03.951Z,99981.97
2022-08-21T14:08:37.979Z,99980.03
2022-08-21T14:11:07.250Z,99980.34
2022-08-21T14:13:47.738Z,99980.44
2022-08-21T14:16:19.701Z,99985.69
2022-08-21T14:18:50.130Z,99987.91
2022-08-21T14:21:29.013Z,99985.19
2022-08-21T14:24:15.327Z,99989.25
2022-08-21T14:27:02.240Z,99989.75
2022-08-21T14:29:35.422Z,99995.22
2022-08-21T14:32:21.654Z,99990.56
2022-08-21T14:34:54.749Z,99992.47
2022-08-21T14:37:22.195Z,99980.22
2022-08-21T14:39:48.963Z,99982.94
2022-08-21T14:42:16.106Z,99983.25
2022-08-21T14:44:43.217Z,99984.88
2022-08-21T14:47:10.485Z,99985.69
2022-08-21T14:49:37.649Z,99981.66
2022-08-21T14:52:04.734Z,99977.38
2022-08-21T14:54:32.893Z,99984.97
2022-08-21T14:57:04.504Z,99992.94
2022-08-21T14:59:33.979Z,99989.41
2022-08-21T15:02:01.942Z,99990.50
2022-08-21T15:04:28.759Z,99988.91
2022-08-21T15:06:55.495Z,99989.22
2022-08-21T15:09:22.773Z,99977.53
2022-08-21T15:11:49.618Z,99986.53
2022-08-21T15:14:21.738Z,99982.78
2022-08-21T15:16:49.813Z,99992.41
2022-08-21T15:19:16.737Z,99983.97
2022-08-21T15:21:43.706Z,99970.19
2022-08-21T15:24:10.800Z,99987.59
2022-08-21T15:26:37.488Z,99976.22
2022-08-21T15:29:06.978Z,99980.00
2022-08-21T15:31:34.761Z,99985.25
2022-08-21T15:34:02.246Z,99984.72
2022-08-21T15:36:28.980Z,99984.72
2022-08-21T15:38:56.023Z,99973.88
2022-08-21T15:41:22.931Z,99976.00
2022-08-21T15:43:52.681Z,99985.31
2022-08-21T15:46:20.895Z,99987.53
2022-08-21T15:48:47.802Z,99989.75
2022-08-21T15:51:17.060Z,99984.84
2022-08-21T15:53:44.925Z,99993.34
2022-08-21T15:56:37.545Z,99993.13
2022-08-21T15:59:13.520Z,99988.25
2022-08-21T16:01:44.822Z,99981.03
2022-08-21T16:04:19.780Z,99982.91
2022-08-21T16:06:54.288Z,99998.28
2022-08-21T16:09:24.426Z,99986.66
2022-08-21T16:11:52.094Z,99997.84
2022-08-21T16:14:19.009Z,99992.97
2022-08-21T16:16:46.306Z,99992.44
2022-08-21T16:19:14.579Z,99999.31
2022-08-21T16:21:41.558Z,99996.69
2022-08-21T16:24:08.486Z,99990.94
2022-08-21T16:26:35.274Z,99994.25
2022-08-21T16:29:03.234Z,99987.81
2022-08-21T16:31:31.999Z,99998.44
2022-08-21T16:33:59.697Z,100000.72
2022-08-21T16:36:27.571Z,100008.09
2022-08-21T16:38:56.577Z,100004.81
2022-08-21T16:41:27.190Z,100002.13
2022-08-21T16:43:54.409Z,100006.25
2022-08-21T16:46:22.928Z,100000.56
2022-08-21T16:48:50.232Z,100009.34
2022-08-21T16:51:17.604Z,100005.28
2022-08-21T16:53:44.654Z,100013.53
2022-08-21T16:56:13.567Z,100010.25
2022-08-21T16:58:44.245Z,100014.69
2022-08-21T17:01:15.159Z,100011.75
2022-08-21T17:03:45.808Z,100010.69
2022-08-21T17:06:13.508Z,100021.31
2022-08-21T17:08:42.270Z,100019.22
2022-08-21T17:11:32.497Z,100023.84
2022-08-21T17:14:07.650Z,100021.22
2022-08-21T17:16:35.602Z,100020.97
2022-08-21T17:19:02.436Z,100028.34
2022-08-21T17:21:29.207Z,100036.53
2022-08-21T17:23:56.409Z,100040.41
2022-08-21T17:26:23.846Z,100034.69
2022-08-21T17:28:54.604Z,100040.44
2022-08-21T17:31:22.167Z,100042.09
2022-08-21T17:33:53.045Z,100041.00
2022-08-21T17:36:22.357Z,100045.13
2022-08-21T17:38:49.407Z,100043.00
2022-08-21T17:41:16.984Z,100043.81
2022-08-21T17:43:44.379Z,100044.66
2022-08-21T17:46:17.183Z,100049.31
2022-08-21T17:48:47.457Z,100042.00
2022-08-21T17:51:15.421Z,100030.31
2022-08-21T17:53:42.647Z,100036.84
2022-08-21T17:56:09.514Z,100041.50
2022-08-21T17:58:37.290Z,100040.47
2022-08-21T18:01:05.835Z,100047.03
2022-08-21T18:03:38.361Z,100047.31
2022-08-21T18:06:06.171Z,100055.53
2022-08-21T18:08:34.358Z,100050.37
2022-08-21T18:11:01.473Z,100050.41
2022-08-21T18:13:31.544Z,100051.78
2022-08-21T18:16:00.305Z,100053.72
2022-08-21T18:18:32.874Z,100046.38
2022-08-21T18:20:59.898Z,100056.75
2022-08-21T18:23:43.469Z,100048.59
2022-08-21T18:26:15.200Z,100059.22
2022-08-21T18:28:44.123Z,100065.50
2022-08-21T18:31:12.208Z,100060.06
2022-08-21T18:33:43.680Z,100051.94
2022-08-21T18:36:27.833Z,100053.03
2022-08-21T18:39:08.682Z,100052.22
2022-08-21T18:41:41.420Z,100040.53
2022-08-21T18:44:08.498Z,100057.13
2022-08-21T18:46:35.235Z,100053.06
2022-08-21T18:49:02.386Z,100039.19
2022-08-21T18:51:29.081Z,100052.25
2022-08-21T18:53:56.174Z,100051.69
2022-08-21T18:56:23.185Z,100051.41
2022-08-21T18:58:51.010Z,100054.69
2022-08-21T19:01:17.797Z,100047.06
2022-08-21T19:03:44.868Z,100055.50
2022-08-21T19:06:11.941Z,100041.63
2022-08-21T19:08:38.814Z,100040.03
2022-08-21T19:11:06.602Z,100056.59
2022-08-21T19:13:34.505Z,100057.94
2022-08-21T19:16:05.184Z,100053.06
2022-08-21T19:18:37.289Z,100063.91
2022-08-21T19:21:04.377Z,100051.72
2022-08-21T19:23:31.322Z,100058.78
2022-08-21T19:26:07.340Z,100048.16
2022-08-21T19:28:48.071Z,100066.09
2022-08-21T19:31:19.752Z,100067.44
2022-08-21T19:34:01.569Z,100061.75
2022-08-21T19:36:30.044Z,100053.59
2022-08-21T19:38:56.975Z,100061.75
2022-08-21T19:41:28.172Z,100060.63
2022-08-21T19:43:58.282Z,100067.19
2022-08-21T19:46:35.046Z,100066.63
2022-08-21T19:49:04.801Z,100065.28
2022-08-21T19:51:35.547Z,100069.59
2022-08-21T19:54:03.517Z,100062.53
2022-08-21T19:56:32.515Z,100062.81
2022-08-21T19:59:03.031Z,100069.59
2022-08-21T20:01:33.188Z,100071.75
2022-08-21T20:04:00.457Z,100066.06
2022-08-21T20:06:27.265Z,100068.22
2022-08-21T20:08:55.240Z,100060.84
2022-08-21T20:11:28.775Z,100072.81
2022-08-21T20:13:59.491Z,100069.25
2022-08-21T20:16:28.991Z,100057.28
2022-08-21T20:18:56.074Z,100063.81
2022-08-21T20:21:22.949Z,100065.44
2022-08-21T20:23:50.239Z,100074.09
2022-08-21T20:26:19.001Z,100057.50
2022-08-21T20:28:46.228Z,100061.59
2022-08-21T20:31:17.729Z,100059.97
2022-08-21T20:33:46.963Z,100065.97
2022-08-21T20:36:16.904Z,100057.25
2022-08-21T20:38:44.892Z,100056.12
2022-08-21T20:41:21.255Z,100054.75
2022-08-21T20:43:58.724Z,100069.69
2022-08-21T20:46:27.163Z,100063.69
2022-08-21T20:48:54.432Z,100071.88
2022-08-21T20:51:39.417Z,100056.09
2022-08-21T20:54:35.606Z,100056.09
2022-08-21T20:57:03.655Z,100058.25
2022-08-21T20:59:30.287Z,100055.53
2022-08-21T21:02:02.442Z,100059.31
2022-08-21T21:04:40.860Z,100065.81
2022-08-21T21:07:15.857Z,100059.84
2022-08-21T21:09:49.654Z,100063.09
2022-08-21T21:12:27.911Z,100058.16
2022-08-21T21:15:00.575Z,100064.69
2022-08-21T21:17:36.369Z,100064.97
2022-08-21T21:20:17.306Z,100060.87
2022-08-21T21:22:57.863Z,100068.72
2022-08-21T21:25:40.660Z,100059.75
2022-08-21T21:28:13.199Z,100053.75
2022-08-21T21:33:31.088Z,100067.87
2022-08-21T21:36:07.701Z,100065.09
2022-08-21T21:38:51.637Z,100067.50
2022-08-21T21:41:54.320Z,100071.53
2022-08-21T21:44:33.031Z,100073.72
2022-08-21T21:47:06.082Z,100063.91
2022-08-21T21:52:34.566Z,100067.13
2022-08-21T21:55:13.576Z,100054.56
2022-08-21T21:57:58.393Z,100062.19
2022-08-21T22:00:30.772Z,100054.81
2022-08-21T22:03:22.416Z,100064.28
2022-08-21T22:06:06.816Z,100064.81
2022-08-21T22:08:50.981Z,100063.13
2022-08-21T22:11:31.824Z,100057.97
2022-08-21T22:14:16.104Z,100055.25
2022-08-21T22:16:48.755Z,100054.16
2022-08-21T22:19:26.502Z,100061.44
2022-08-21T22:22:12.660Z,100044.56
2022-08-21T22:24:43.948Z,100051.38
2022-08-21T22:27:17.078Z,100058.13
2022-08-21T22:29:56.144Z,100055.13
2022-08-21T22:32:38.051Z,100048.88
2022-08-21T22:35:17.072Z,100053.75
2022-08-21T22:37:55.114Z,100046.12
2022-08-21T22:40:27.587Z,100039.56
2022-08-21T22:43:26.374Z,100058.25
2022-08-21T22:46:04.276Z,100051.69
2022-08-21T22:48:51.051Z,100038.91
2022-08-21T22:51:32.455Z,100039.72
2022-08-21T22:54:00.223Z,100041.28
2022-08-21T22:56:43.360Z,100042.31
2022-08-21T22:59:25.801Z,100042.12
2022-08-21T23:01:59.510Z,100052.62
2022-08-21T23:04:27.430Z,100050.69
2022-08-21T23:06:58.277Z,100042.28
2022-08-21T23:09:37.408Z,100053.38
2022-08-21T23:12:23.836Z,100041.41
2022-08-21T23:15:05.339Z,100049.28
2022-08-21T23:17:49.662Z,100046.72
2022-08-21T23:20:24.975Z,100038.81
2022-08-21T23:23:03.664Z,100045.03
2022-08-21T23:25:36.453Z,100033.84
2022-08-21T23:28:57.415Z,100038.50
2022-08-21T23:31:44.293Z,100045.22
2022-08-21T23:34:29.782Z,100023.47
2022-08-21T23:37:48.767Z,100038.13
2022-08-21T23:40:38.816Z,100040.50
2022-08-21T23:47:10.517Z,100029.63
2022-08-21T23:49:54.058Z,100043.16
2022-08-21T23:52:21.194Z,100028.72
2022-08-21T23:55:12.091Z,100021.91
2022-08-21T23:58:02.010Z,100036.56
